Time;durP1;ratioP1;P1;durP2;ratioP2;P2;SDS_P1;SDS_P2;PMS_P1;PMS_P2;Temp;Humidity;BMP_temperature;BMP_pressure;BME280_temperature;BME280_humidity;BME280_pressure;Samples;Min_cycle;Max_cycle;Signal;HPM_P1;HPM_P2
2021/11/18 08:38:18;;;;;;;9.60;6.45;;;;;;;;;;4986224;23;20281;-76
2021/11/18 08:40:55;;;;;;;10.18;7.18;;;;;;;;;;4880045;29;20033;-76
2021/11/18 09:32:18;;;;;;;7.22;5.78;;;;;;;;;;4868843;29;20053;-78
2021/11/18 09:34:44;;;;;;;6.53;5.75;;;;;;;;;;4883450;29;20037;-76
2021/11/18 09:37:11;;;;;;;6.60;6.00;;;;;;;;;;4883252;29;20066;-77
2021/11/18 09:39:36;;;;;;;6.40;5.80;;;;;;;;;;4883025;29;20040;-77
2021/11/18 09:42:04;;;;;;;6.30;5.80;;;;;;;;;;4883115;29;20462;-76
2021/11/18 09:44:42;;;;;;;6.22;5.63;;;;;;;;;;4882915;29;20483;-78
2021/11/18 09:47:34;;;;;;;6.32;5.72;;;;;;;;;;4881569;29;20041;-78
2021/11/18 09:50:28;;;;;;;5.38;4.93;;;;;;;;;;4882607;29;20112;-78
2021/11/18 09:53:15;;;;;;;6.70;5.80;;;;;;;;;;4883106;29;20121;-78
2021/11/18 09:55:43;;;;;;;5.30;4.88;;;;;;;;;;4882680;29;20040;-78
2021/11/18 09:58:36;;;;;;;5.25;4.85;;;;;;;;;;4882561;29;20420;-78
2021/11/18 10:01:39;;;;;;;6.43;5.00;;;;;;;;;;4882689;29;20361;-78
2021/11/18 10:04:23;;;;;;;5.53;4.97;;;;;;;;;;4881272;29;20093;-78
2021/11/18 10:07:00;;;;;;;6.00;5.50;;;;;;;;;;4882564;29;20076;-77
2021/11/18 10:10:07;;;;;;;5.32;4.82;;;;;;;;;;4882596;29;20029;-78
2021/11/18 10:12:51;;;;;;;5.85;5.28;;;;;;;;;;4881923;29;20040;-78
2021/11/18 10:15:21;;;;;;;5.07;4.68;;;;;;;;;;4882593;29;20392;-79
2021/11/18 10:17:59;;;;;;;5.85;5.28;;;;;;;;;;4882282;29;20029;-79
2021/11/18 10:20:34;;;;;;;5.20;4.82;;;;;;;;;;4882582;29;20036;-78
2021/11/18 10:23:07;;;;;;;5.30;4.85;;;;;;;;;;4882406;29;20017;-81
2021/11/18 10:26:04;;;;;;;6.15;5.55;;;;;;;;;;4882218;29;20452;-78
2021/11/18 10:28:41;;;;;;;5.88;5.28;;;;;;;;;;4882173;29;20480;-78
2021/11/18 10:31:14;;;;;;;7.20;4.93;;;;;;;;;;4881960;29;20382;-78
2021/11/18 10:33:43;;;;;;;5.70;5.18;;;;;;;;;;4882107;29;20025;-79
2021/11/18 10:36:33;;;;;;;7.65;4.78;;;;;;;;;;4882180;29;20028;-79
2021/11/18 10:39:26;;;;;;;5.55;5.05;;;;;;;;;;4881751;29;20025;-79
2021/11/18 10:42:02;;;;;;;6.68;5.43;;;;;;;;;;4882152;29;20089;-79
2021/11/18 10:44:30;;;;;;;5.15;4.65;;;;;;;;;;4881916;29;20060;-80
2021/11/18 10:47:08;;;;;;;5.40;4.85;;;;;;;;;;4881833;29;20036;-79
2021/11/18 10:49:45;;;;;;;4.95;4.40;;;;;;;;;;4881760;29;20503;-79
2021/11/18 10:52:27;;;;;;;5.20;4.70;;;;;;;;;;4881736;29;20029;-87
2021/11/18 10:55:14;;;;;;;4.78;4.20;;;;;;;;;;4881959;29;20037;-80
2021/11/18 10:57:53;;;;;;;4.40;4.00;;;;;;;;;;4881561;29;20033;-80
2021/11/18 11:00:36;;;;;;;4.55;4.22;;;;;;;;;;4881519;29;20068;-80
2021/11/18 11:03:18;;;;;;;4.47;4.07;;;;;;;;;;4881759;29;20492;-76
2021/11/18 11:05:43;;;;;;;4.68;4.28;;;;;;;;;;4881880;29;20029;-76
2021/11/18 11:08:24;;;;;;;5.25;4.72;;;;;;;;;;4881626;29;20364;-76
2021/11/18 11:10:57;;;;;;;5.50;4.30;;;;;;;;;;4881308;29;20081;-75
2021/11/18 11:13:56;;;;;;;4.38;4.03;;;;;;;;;;4881453;29;20037;-76
2021/11/18 11:16:52;;;;;;;4.32;3.97;;;;;;;;;;4881342;29;20092;-75
2021/11/18 11:19:46;;;;;;;4.82;4.32;;;;;;;;;;4881011;29;20040;-76
2021/11/18 11:22:35;;;;;;;5.55;4.95;;;;;;;;;;4881558;29;20037;-75
2021/11/18 11:25:07;;;;;;;5.15;4.20;;;;;;;;;;4880253;29;20593;-76
2021/11/18 11:27:54;;;;;;;4.88;4.38;;;;;;;;;;4881000;29;20025;-75
2021/11/18 11:30:29;;;;;;;4.88;3.92;;;;;;;;;;4881111;29;20029;-80
2021/11/18 11:33:15;;;;;;;5.53;4.10;;;;;;;;;;4880998;29;20484;-78
2021/11/18 11:36:36;;;;;;;4.28;3.83;;;;;;;;;;4880898;29;20044;-78
2021/11/18 11:39:17;;;;;;;3.65;3.35;;;;;;;;;;4876629;29;20128;-78
2021/11/18 11:42:00;;;;;;;4.20;3.90;;;;;;;;;;4880712;29;20029;-77
2021/11/18 11:44:26;;;;;;;4.18;3.70;;;;;;;;;;4880936;29;20357;-80
2021/11/18 11:46:57;;;;;;;4.13;3.53;;;;;;;;;;4880695;29;20025;-78
2021/11/18 11:49:29;;;;;;;3.97;3.50;;;;;;;;;;4880697;29;20021;-78
2021/11/18 11:52:29;;;;;;;4.22;3.83;;;;;;;;;;4880885;29;20107;-76
2021/11/18 11:55:00;;;;;;;5.75;3.50;;;;;;;;;;4880730;29;20101;-76
2021/11/18 11:57:41;;;;;;;3.75;3.00;;;;;;;;;;4880533;29;20049;-75
2021/11/18 12:00:16;;;;;;;4.35;3.55;;;;;;;;;;4880369;29;20032;-76
2021/11/18 12:03:03;;;;;;;3.80;3.50;;;;;;;;;;4880490;29;20067;-75
2021/11/18 12:05:47;;;;;;;3.78;3.38;;;;;;;;;;4880343;29;20089;-76
2021/11/18 12:08:37;;;;;;;3.60;3.30;;;;;;;;;;4880372;29;20036;-75
2021/11/18 12:11:21;;;;;;;3.60;3.30;;;;;;;;;;4880521;29;20049;-75
2021/11/18 12:14:01;;;;;;;4.82;3.50;;;;;;;;;;4880206;29;20048;-76
2021/11/18 12:16:45;;;;;;;4.22;3.83;;;;;;;;;;4880217;29;20037;-76
2021/11/18 12:19:16;;;;;;;4.32;3.47;;;;;;;;;;4880296;29;20044;-76
2021/11/18 12:21:42;;;;;;;3.83;3.50;;;;;;;;;;4880234;29;20380;-75
2021/11/18 12:24:35;;;;;;;4.22;3.60;;;;;;;;;;4880063;29;20037;-75
2021/11/18 12:27:23;;;;;;;4.55;3.40;;;;;;;;;;4877932;29;20051;-75
2021/11/18 12:30:09;;;;;;;3.45;3.15;;;;;;;;;;4880090;29;20041;-76
2021/11/18 12:32:37;;;;;;;4.93;2.85;;;;;;;;;;4879943;29;20109;-77
2021/11/18 12:35:05;;;;;;;3.97;3.03;;;;;;;;;;4880104;29;20036;-75
2021/11/18 12:37:34;;;;;;;3.93;3.03;;;;;;;;;;4879633;29;20052;-76
2021/11/18 12:40:16;;;;;;;3.47;3.17;;;;;;;;;;4879710;29;20037;-75
2021/11/18 12:42:52;;;;;;;4.45;3.25;;;;;;;;;;4879169;29;20029;-76
2021/11/18 12:45:51;;;;;;;5.10;3.35;;;;;;;;;;4879923;29;20029;-76
2021/11/18 12:48:34;;;;;;;3.50;3.20;;;;;;;;;;4854906;29;20041;-75
2021/11/18 17:21:28;;;;;;;14.98;9.40;;;;;;;;;;4870610;29;20124;-74
2021/11/18 17:23:54;;;;;;;14.18;10.20;;;;;;;;;;4881691;29;20074;-75
2021/11/18 17:26:23;;;;;;;14.40;8.40;;;;;;;;;;4866487;29;20415;-75
2021/11/18 17:28:50;;;;;;;14.88;9.25;;;;;;;;;;4883105;29;20029;-75
2021/11/18 17:31:19;;;;;;;11.68;8.73;;;;;;;;;;4883145;29;20029;-75
2021/11/18 17:33:45;;;;;;;13.73;8.77;;;;;;;;;;4883120;29;20036;-76
2021/11/18 17:36:16;;;;;;;14.30;9.68;;;;;;;;;;4883383;29;20037;-77
2021/11/18 17:38:46;;;;;;;12.65;8.43;;;;;;;;;;4882815;29;20040;-77
2021/11/18 17:41:12;;;;;;;;;;;;;;;;;;4883420;29;20033;-76
2021/11/18 17:43:41;;;;;;;13.23;8.93;;;;;;;;;;4883001;29;19918;-76
2021/11/18 17:46:14;;;;;;;12.93;8.00;;;;;;;;;;4883065;29;20376;-76
2021/11/18 17:48:42;;;;;;;10.77;8.13;;;;;;;;;;4882777;29;20029;-77
2021/11/18 17:51:11;;;;;;;11.43;8.30;;;;;;;;;;4883064;29;20357;-76
2021/11/18 17:53:38;;;;;;;13.02;8.40;;;;;;;;;;4882787;29;20025;-75
2021/11/18 17:56:05;;;;;;;15.50;9.48;;;;;;;;;;4882660;29;20112;-75
2021/11/18 17:58:36;;;;;;;13.57;8.32;;;;;;;;;;4882768;29;20029;-75
2021/11/18 18:01:10;;;;;;;17.67;12.32;;;;;;;;;;4865922;29;20026;-74
2021/11/18 18:03:40;;;;;;;16.60;10.60;;;;;;;;;;4882722;29;20033;-75
2021/11/18 18:06:07;;;;;;;21.65;12.00;;;;;;;;;;4882768;29;20037;-76
2021/11/18 18:08:36;;;;;;;17.38;11.80;;;;;;;;;;4882564;29;20380;-75
2021/11/18 18:11:02;;;;;;;15.25;10.35;;;;;;;;;;4882511;29;20025;-76
2021/11/18 18:13:30;;;;;;;17.08;11.13;;;;;;;;;;4882218;29;20100;-75
2021/11/18 18:15:55;;;;;;;17.67;10.48;;;;;;;;;;4882273;29;20033;-74
2021/11/18 18:18:21;;;;;;;14.90;11.00;;;;;;;;;;4882136;29;20022;-74
2021/11/18 18:20:50;;;;;;;19.42;15.20;;;;;;;;;;4882393;29;20044;-74
2021/11/18 18:23:17;;;;;;;13.77;10.63;;;;;;;;;;4882430;29;20108;-74
2021/11/18 18:25:45;;;;;;;21.35;13.30;;;;;;;;;;4882205;29;20035;-75
2021/11/18 18:28:12;;;;;;;17.73;12.93;;;;;;;;;;4882074;29;20037;-74
2021/11/18 18:30:51;;;;;;;20.08;14.50;;;;;;;;;;4882030;29;20040;-77
2021/11/18 18:33:17;;;;;;;23.50;18.60;;;;;;;;;;4865240;29;20085;-75
2021/11/18 18:35:43;;;;;;;21.63;15.82;;;;;;;;;;4881767;29;20033;-75
2021/11/18 18:38:11;;;;;;;20.85;14.00;;;;;;;;;;4881989;29;20031;-79
2021/11/18 18:40:40;;;;;;;20.70;11.35;;;;;;;;;;4882270;29;20029;-75
2021/11/18 18:43:10;;;;;;;16.88;11.93;;;;;;;;;;4865412;29;20029;-76
2021/11/18 18:45:38;;;;;;;19.00;11.50;;;;;;;;;;4881934;29;20039;-75
2021/11/18 18:48:05;;;;;;;15.73;11.30;;;;;;;;;;4881815;29;20044;-76
2021/11/18 18:50:35;;;;;;;18.67;11.60;;;;;;;;;;4881660;29;20071;-75
2021/11/18 18:53:02;;;;;;;18.23;10.50;;;;;;;;;;4865098;29;20033;-76
2021/11/18 18:55:29;;;;;;;16.48;10.48;;;;;;;;;;4881887;29;20496;-76
2021/11/18 18:57:55;;;;;;;17.48;10.90;;;;;;;;;;4881525;29;20044;-77
2021/11/18 19:00:29;;;;;;;15.38;11.15;;;;;;;;;;4881582;29;20381;-75
2021/11/18 19:02:55;;;;;;;16.17;11.38;;;;;;;;;;4881560;29;20037;-75
2021/11/18 19:05:22;;;;;;;18.95;12.15;;;;;;;;;;4881732;29;20040;-75
2021/11/18 19:07:48;;;;;;;21.98;12.45;;;;;;;;;;4881321;29;20395;-74
2021/11/18 19:10:18;;;;;;;24.73;14.95;;;;;;;;;;4881544;29;20111;-74
2021/11/18 19:12:44;;;;;;;16.85;11.68;;;;;;;;;;4881754;29;20033;-76
2021/11/18 19:15:13;;;;;;;13.25;9.30;;;;;;;;;;4881632;29;20056;-75
2021/11/18 19:17:38;;;;;;;14.43;9.98;;;;;;;;;;4881427;29;20037;-75
2021/11/18 19:20:07;;;;;;;14.93;10.50;;;;;;;;;;4881384;29;20025;-75
2021/11/18 19:22:37;;;;;;;21.08;14.20;;;;;;;;;;4881463;29;20053;-75
2021/11/18 19:25:07;;;;;;;18.92;11.52;;;;;;;;;;4881223;29;20033;-75
2021/11/18 19:27:55;;;;;;;18.17;12.68;;;;;;;;;;4881055;29;20464;-76
2021/11/18 21:34:53;;;;;;;22.17;13.40;;;;;;;;;;4876169;29;20060;-75
